createdAt,value
2023-01-30T00:00:14.797Z,15.03
2023-01-30T00:04:19.168Z,15.73
2023-01-30T00:08:22.607Z,14.27
2023-01-30T00:12:25.314Z,17.17
2023-01-30T00:16:28.248Z,17.00
2023-01-30T00:20:32.441Z,16.23
2023-01-30T00:24:35.273Z,15.40
2023-01-30T00:28:38.399Z,18.23
2023-01-30T00:32:41.077Z,16.10
2023-01-30T00:36:47.719Z,15.60
2023-01-30T00:40:52.170Z,15.60
2023-01-30T00:45:12.446Z,15.93
2023-01-30T00:49:15.481Z,15.20
2023-01-30T00:53:20.160Z,15.60
2023-01-30T00:57:22.925Z,17.23
2023-01-30T01:01:25.704Z,16.30
2023-01-30T01:05:29.664Z,17.57
2023-01-30T01:09:33.891Z,18.53
2023-01-30T01:13:36.646Z,16.27
2023-01-30T01:17:39.446Z,16.73
2023-01-30T01:21:42.205Z,16.37
2023-01-30T01:25:46.727Z,15.83
2023-01-30T01:29:49.508Z,17.27
2023-01-30T01:33:53.258Z,16.63
2023-01-30T01:37:56.573Z,16.10
2023-01-30T01:42:00.740Z,15.33
2023-01-30T01:46:09.030Z,16.37
2023-01-30T01:50:13.950Z,14.20
2023-01-30T01:54:19.531Z,13.83
2023-01-30T01:58:25.430Z,13.50
2023-01-30T02:02:28.335Z,14.60
2023-01-30T02:06:31.892Z,15.63
2023-01-30T02:10:41.619Z,15.83
2023-01-30T02:14:46.020Z,15.47
2023-01-30T02:18:49.068Z,17.07
2023-01-30T02:23:09.778Z,16.13
2023-01-30T02:27:20.282Z,13.20
2023-01-30T02:31:28.920Z,13.90
2023-01-30T02:35:40.495Z,13.63
2023-01-30T02:39:53.404Z,11.97
2023-01-30T02:44:02.628Z,12.40
2023-01-30T02:48:08.066Z,12.57
2023-01-30T02:52:12.928Z,12.90
2023-01-30T02:56:15.667Z,11.90
2023-01-30T03:00:21.829Z,11.53
2023-01-30T03:04:48.882Z,11.73
2023-01-30T03:08:59.481Z,12.40
2023-01-30T03:13:06.977Z,12.53
2023-01-30T03:17:10.554Z,12.83
2023-01-30T03:21:15.116Z,12.20
2023-01-30T03:25:21.836Z,12.20
2023-01-30T03:29:24.613Z,11.87
2023-01-30T03:33:27.675Z,11.57
2023-01-30T03:37:32.063Z,11.87
2023-01-30T03:41:35.036Z,12.13
2023-01-30T03:45:37.921Z,13.90
2023-01-30T03:49:40.719Z,12.27
2023-01-30T03:53:45.919Z,12.07
2023-01-30T03:58:03.062Z,12.20
2023-01-30T04:02:05.862Z,11.43
2023-01-30T04:06:09.055Z,12.77
2023-01-30T04:10:15.345Z,11.27
2023-01-30T04:14:18.144Z,11.40
2023-01-30T04:18:20.847Z,11.60
2023-01-30T04:22:23.871Z,11.17
2023-01-30T04:26:28.480Z,11.07
2023-01-30T04:30:31.562Z,10.10
2023-01-30T04:34:34.248Z,10.67
2023-01-30T04:38:37.979Z,10.20
2023-01-30T04:42:42.073Z,10.70
2023-01-30T04:46:44.855Z,11.57
2023-01-30T04:50:49.992Z,10.40
2023-01-30T04:54:53.002Z,10.80
2023-01-30T04:58:57.405Z,9.07
2023-01-30T05:03:00.232Z,10.00
2023-01-30T05:07:03.029Z,11.00
2023-01-30T05:11:06.293Z,10.07
2023-01-30T05:15:12.159Z,9.93
2023-01-30T05:19:14.938Z,10.37
2023-01-30T05:23:17.971Z,9.07
2023-01-30T05:27:20.949Z,10.13
2023-01-30T05:31:25.644Z,9.23
2023-01-30T05:35:28.524Z,8.80
2023-01-30T05:39:31.654Z,9.53
2023-01-30T05:43:35.279Z,9.30
2023-01-30T05:47:39.912Z,9.03
2023-01-30T05:51:42.885Z,8.50
2023-01-30T05:55:45.919Z,10.10
2023-01-30T05:59:49.029Z,10.03
2023-01-30T06:03:53.993Z,8.33
2023-01-30T06:07:56.772Z,8.47
2023-01-30T06:11:59.798Z,8.00
2023-01-30T06:16:02.792Z,8.70
2023-01-30T06:20:08.013Z,8.33
2023-01-30T06:24:10.754Z,8.50
2023-01-30T06:28:13.935Z,9.20
2023-01-30T06:32:16.730Z,9.47
2023-01-30T06:36:21.253Z,8.70
2023-01-30T06:40:23.987Z,8.70
2023-01-30T06:44:26.704Z,8.37
2023-01-30T06:48:29.462Z,9.47
2023-01-30T06:52:33.695Z,8.87
2023-01-30T06:56:36.761Z,9.27
2023-01-30T07:00:40.810Z,9.70
2023-01-30T07:04:43.616Z,10.43
2023-01-30T07:08:47.759Z,10.73
2023-01-30T07:12:50.527Z,9.87
2023-01-30T07:16:53.342Z,9.33
2023-01-30T07:20:56.076Z,8.97
2023-01-30T07:25:00.489Z,8.57
2023-01-30T07:29:03.424Z,9.57
2023-01-30T07:33:07.400Z,7.23
2023-01-30T07:37:10.275Z,7.97
2023-01-30T07:41:14.396Z,7.70
2023-01-30T07:45:17.409Z,7.53
2023-01-30T07:49:20.293Z,7.20
2023-01-30T07:53:23.325Z,7.30
2023-01-30T07:57:27.414Z,7.00
2023-01-30T08:01:30.269Z,7.87
2023-01-30T08:05:33.221Z,7.10
2023-01-30T08:09:36.035Z,6.50
2023-01-30T08:13:40.236Z,6.93
2023-01-30T08:17:42.991Z,6.77
2023-01-30T08:21:46.037Z,6.80
2023-01-30T08:25:49.078Z,7.20
2023-01-30T08:29:53.160Z,6.93
2023-01-30T08:33:55.897Z,7.23
2023-01-30T08:37:58.598Z,8.03
2023-01-30T08:42:01.257Z,7.20
2023-01-30T08:46:06.022Z,7.47
2023-01-30T08:50:10.034Z,6.27
2023-01-30T08:54:12.754Z,7.07
2023-01-30T08:58:15.724Z,6.43
2023-01-30T09:02:19.793Z,11.40
2023-01-30T09:06:24.475Z,8.47
2023-01-30T09:10:29.585Z,7.33
2023-01-30T09:14:32.392Z,6.73
2023-01-30T09:18:39.590Z,6.97
2023-01-30T09:22:42.362Z,7.70
2023-01-30T09:26:45.324Z,7.87
2023-01-30T09:30:48.156Z,8.07
2023-01-30T09:34:52.710Z,7.00
2023-01-30T09:38:55.414Z,7.73
2023-01-30T09:43:17.925Z,6.30
2023-01-30T09:47:25.913Z,7.73
2023-01-30T09:51:46.827Z,6.60
2023-01-30T09:55:50.666Z,6.43
2023-01-30T09:59:58.270Z,5.63
2023-01-30T10:04:11.072Z,6.90
2023-01-30T10:08:41.020Z,5.43
2023-01-30T10:12:51.564Z,5.03
2023-01-30T10:17:01.418Z,5.50
2023-01-30T10:21:12.581Z,5.57
2023-01-30T10:25:27.812Z,4.97
2023-01-30T10:29:33.713Z,4.20
2023-01-30T10:33:40.718Z,4.10
2023-01-30T10:37:47.675Z,4.03
2023-01-30T10:41:55.672Z,4.10
2023-01-30T10:46:14.315Z,5.17
2023-01-30T10:50:20.303Z,4.37
2023-01-30T10:54:28.656Z,4.50
2023-01-30T10:58:37.804Z,4.53
2023-01-30T11:02:46.792Z,4.10
2023-01-30T11:06:50.016Z,4.30
2023-01-30T11:10:53.460Z,4.13
2023-01-30T11:15:03.995Z,4.57
2023-01-30T11:19:19.480Z,5.67
2023-01-30T11:23:26.681Z,4.53
2023-01-30T11:27:30.428Z,4.50
2023-01-30T11:31:41.352Z,4.70
2023-01-30T11:35:53.589Z,4.20
2023-01-30T11:39:57.475Z,4.40
2023-01-30T11:44:02.767Z,4.27
2023-01-30T11:48:23.503Z,5.17
2023-01-30T11:52:37.820Z,4.17
2023-01-30T11:56:42.608Z,4.73
2023-01-30T12:00:49.406Z,4.37
2023-01-30T12:04:56.390Z,4.80
2023-01-30T12:09:00.118Z,4.50
2023-01-30T12:13:06.013Z,4.27
2023-01-30T12:17:18.970Z,4.07
2023-01-30T12:21:40.112Z,5.37
2023-01-30T12:25:46.147Z,4.70
2023-01-30T12:29:56.761Z,5.30
2023-01-30T12:33:59.520Z,4.70
2023-01-30T12:38:08.514Z,5.13
2023-01-30T12:42:30.191Z,4.40
2023-01-30T12:46:49.971Z,5.03
2023-01-30T12:51:03.387Z,4.70
2023-01-30T12:55:20.137Z,4.80
2023-01-30T12:59:27.834Z,4.40
2023-01-30T13:03:36.687Z,4.87
2023-01-30T13:07:44.783Z,5.13
2023-01-30T13:11:56.921Z,4.87
2023-01-30T13:16:06.886Z,4.60
2023-01-30T13:20:20.524Z,10.43
2023-01-30T13:24:28.721Z,5.67
2023-01-30T13:28:36.958Z,6.67
2023-01-30T13:32:41.803Z,5.93
2023-01-30T13:36:48.910Z,6.07
2023-01-30T13:40:53.821Z,7.00
2023-01-30T13:44:58.389Z,6.67
2023-01-30T13:49:08.892Z,4.80
2023-01-30T13:53:16.540Z,5.10
2023-01-30T13:57:27.661Z,5.47
2023-01-30T14:02:03.775Z,5.10
2023-01-30T14:06:15.382Z,5.37
2023-01-30T14:10:21.267Z,4.80
2023-01-30T14:14:32.540Z,5.47
2023-01-30T14:18:38.665Z,6.03
2023-01-30T14:22:52.160Z,5.83
2023-01-30T14:27:02.960Z,7.37
2023-01-30T14:31:05.953Z,6.63
2023-01-30T14:35:26.256Z,5.53
2023-01-30T14:39:50.602Z,5.77
2023-01-30T14:43:54.258Z,6.00
2023-01-30T14:48:27.520Z,5.50
2023-01-30T14:52:36.018Z,5.50
2023-01-30T14:56:43.595Z,5.17
2023-01-30T15:00:46.288Z,4.50
2023-01-30T15:04:52.906Z,4.90
2023-01-30T15:08:55.815Z,5.00
2023-01-30T15:13:24.376Z,4.40
2023-01-30T15:17:31.920Z,4.13
2023-01-30T15:21:42.861Z,4.83
2023-01-30T15:25:58.650Z,3.97
2023-01-30T15:30:17.225Z,4.20
2023-01-30T15:34:20.953Z,4.70
2023-01-30T15:38:26.484Z,4.40
2023-01-30T15:42:29.337Z,4.93
2023-01-30T15:46:42.288Z,5.37
2023-01-30T15:50:49.715Z,5.37
2023-01-30T15:54:54.581Z,7.63
2023-01-30T15:58:57.998Z,5.63
2023-01-30T16:03:03.782Z,6.93
2023-01-30T16:07:17.002Z,6.67
2023-01-30T16:11:34.457Z,6.30
2023-01-30T16:15:41.251Z,6.53
2023-01-30T16:19:45.964Z,6.27
2023-01-30T16:23:54.983Z,8.83
2023-01-30T16:27:58.597Z,7.73
2023-01-30T16:32:01.622Z,5.60
2023-01-30T16:36:07.845Z,6.13
2023-01-30T16:40:15.267Z,6.40
2023-01-30T16:44:19.811Z,5.90
2023-01-30T16:48:31.775Z,6.93
2023-01-30T16:52:38.156Z,7.23
2023-01-30T16:56:48.339Z,6.93
2023-01-30T17:00:51.913Z,7.23
2023-01-30T17:04:54.856Z,7.27
2023-01-30T17:08:59.567Z,9.77
2023-01-30T17:13:02.406Z,6.47
2023-01-30T17:17:07.457Z,6.77
2023-01-30T17:21:10.870Z,7.13
2023-01-30T17:25:20.071Z,5.80
2023-01-30T17:29:41.538Z,5.73
2023-01-30T17:33:45.486Z,6.33
2023-01-30T17:37:59.562Z,5.43
2023-01-30T17:42:10.722Z,6.07
2023-01-30T17:46:13.837Z,5.30
2023-01-30T17:50:16.736Z,6.00
2023-01-30T17:54:20.580Z,7.13
2023-01-30T17:58:24.987Z,7.50
2023-01-30T18:02:29.353Z,5.63
2023-01-30T18:06:32.569Z,5.97
2023-01-30T18:10:35.381Z,7.13
2023-01-30T18:14:40.555Z,4.20
2023-01-30T18:18:43.292Z,5.03
2023-01-30T18:22:46.160Z,5.40
2023-01-30T18:26:49.262Z,5.60
2023-01-30T18:30:53.993Z,5.10
2023-01-30T18:34:57.032Z,4.50
2023-01-30T18:38:59.808Z,5.27
2023-01-30T18:43:02.611Z,4.83
2023-01-30T18:47:06.797Z,5.03
2023-01-30T18:51:11.820Z,4.20
2023-01-30T18:55:14.997Z,5.70
2023-01-30T18:59:17.862Z,5.57
2023-01-30T19:03:22.221Z,6.47
2023-01-30T19:07:25.037Z,5.10
2023-01-30T19:11:45.716Z,7.37
2023-01-30T19:15:48.819Z,5.40
2023-01-30T19:19:52.951Z,11.53
2023-01-30T19:23:56.344Z,7.80
2023-01-30T19:27:59.060Z,6.20
2023-01-30T19:32:01.951Z,5.40
2023-01-30T19:36:12.880Z,5.10
2023-01-30T19:40:15.753Z,7.47
2023-01-30T19:44:18.608Z,5.87
2023-01-30T19:48:21.480Z,5.80
2023-01-30T19:52:25.692Z,8.50
2023-01-30T19:56:30.215Z,7.23
2023-01-30T20:00:33.051Z,6.00
2023-01-30T20:04:35.846Z,5.87
2023-01-30T20:08:40.459Z,6.93
2023-01-30T20:12:43.608Z,7.93
2023-01-30T20:16:46.490Z,7.30
2023-01-30T20:20:49.295Z,10.03
2023-01-30T20:24:53.671Z,11.53
2023-01-30T20:28:57.305Z,8.27
2023-01-30T20:33:00.251Z,6.80
2023-01-30T20:37:03.044Z,7.10
2023-01-30T20:41:09.404Z,7.23
2023-01-30T20:45:12.396Z,10.30
2023-01-30T20:49:16.540Z,11.17
2023-01-30T20:53:19.644Z,11.27
2023-01-30T20:57:23.785Z,8.70
2023-01-30T21:01:26.880Z,8.07
2023-01-30T21:05:29.700Z,7.43
2023-01-30T21:09:32.787Z,7.70
2023-01-30T21:13:38.282Z,8.80
2023-01-30T21:17:41.126Z,10.10
2023-01-30T21:21:49.998Z,11.77
2023-01-30T21:25:52.755Z,8.20
2023-01-30T21:29:56.929Z,8.03
2023-01-30T21:34:00.411Z,8.87
2023-01-30T21:38:20.636Z,8.07
2023-01-30T21:42:40.881Z,8.77
2023-01-30T21:46:47.006Z,10.03
2023-01-30T21:50:50.039Z,7.70
2023-01-30T21:54:52.803Z,8.80
2023-01-30T21:58:56.638Z,9.27
2023-01-30T22:03:00.729Z,6.97
2023-01-30T22:07:06.420Z,9.87
2023-01-30T22:11:11.164Z,8.67
2023-01-30T22:15:14.170Z,8.37
2023-01-30T22:19:18.593Z,11.90
2023-01-30T22:23:21.362Z,6.57
2023-01-30T22:27:24.268Z,9.67
2023-01-30T22:31:31.259Z,12.60
2023-01-30T22:35:36.076Z,7.37
2023-01-30T22:39:38.844Z,8.87
2023-01-30T22:43:44.911Z,7.17
2023-01-30T22:47:47.638Z,8.87
2023-01-30T22:51:51.790Z,9.50
2023-01-30T22:55:54.738Z,7.43
2023-01-30T22:59:57.488Z,10.23
2023-01-30T23:04:02.549Z,10.10
2023-01-30T23:08:06.731Z,8.23
2023-01-30T23:12:27.076Z,12.07
2023-01-30T23:16:29.834Z,10.30
2023-01-30T23:20:32.500Z,10.87
2023-01-30T23:24:39.061Z,10.27
2023-01-30T23:28:41.817Z,10.23
2023-01-30T23:32:44.522Z,12.17
2023-01-30T23:36:47.739Z,10.73
2023-01-30T23:40:51.758Z,9.33
2023-01-30T23:44:54.491Z,8.60
2023-01-30T23:48:58.818Z,9.90
2023-01-30T23:53:01.498Z,11.13
2023-01-30T23:57:05.631Z,10.57
